createdAt,value
2019-03-12T00:01:09.895Z,5.58
2019-03-12T00:03:37.221Z,7.85
2019-03-12T00:06:04.554Z,5.75
2019-03-12T00:08:31.841Z,6.37
2019-03-12T00:10:59.272Z,6.15
2019-03-12T00:13:26.628Z,6.65
2019-03-12T00:15:53.917Z,5.85
2019-03-12T00:18:21.271Z,5.90
2019-03-12T00:20:48.571Z,6.47
2019-03-12T00:23:15.862Z,6.58
2019-03-12T00:25:43.190Z,6.10
2019-03-12T00:28:10.475Z,6.17
2019-03-12T00:30:37.766Z,7.08
2019-03-12T00:33:05.082Z,5.67
2019-03-12T00:35:32.726Z,5.97
2019-03-12T00:38:00.010Z,7.30
2019-03-12T00:40:27.342Z,5.22
2019-03-12T00:42:54.689Z,7.20
2019-03-12T00:45:22.002Z,5.92
2019-03-12T00:47:49.297Z,6.53
2019-03-12T00:50:16.588Z,6.78
2019-03-12T00:52:43.926Z,5.05
2019-03-12T00:55:11.224Z,5.15
2019-03-12T00:57:38.583Z,5.67
2019-03-12T01:00:13.418Z,5.97
2019-03-12T01:02:40.711Z,5.15
2019-03-12T01:05:08.402Z,4.78
2019-03-12T01:07:36.674Z,5.72
2019-03-12T01:10:04.858Z,6.22
2019-03-12T01:12:32.209Z,5.97
2019-03-12T01:14:59.496Z,5.20
2019-03-12T01:17:27.046Z,6.15
2019-03-12T01:19:54.332Z,5.00
2019-03-12T01:22:21.623Z,4.97
2019-03-12T01:24:48.909Z,6.45
2019-03-12T01:27:16.220Z,5.12
2019-03-12T01:29:43.509Z,5.58
2019-03-12T01:32:10.791Z,6.60
2019-03-12T01:34:38.154Z,6.28
2019-03-12T01:37:05.431Z,5.20
2019-03-12T01:39:32.748Z,6.20
2019-03-12T01:42:00.107Z,5.58
2019-03-12T01:44:27.498Z,5.95
2019-03-12T01:46:54.848Z,6.78
2019-03-12T01:49:22.196Z,6.72
2019-03-12T01:51:49.479Z,4.87
2019-03-12T01:54:16.779Z,5.22
2019-03-12T01:56:44.118Z,7.00
2019-03-12T01:59:11.441Z,6.65
2019-03-12T02:01:38.723Z,5.58
2019-03-12T02:04:06.007Z,6.28
2019-03-12T02:06:33.359Z,6.47
2019-03-12T02:09:00.649Z,6.87
2019-03-12T02:11:29.085Z,7.08
2019-03-12T02:13:56.370Z,5.12
2019-03-12T02:16:23.718Z,7.78
2019-03-12T02:18:51.015Z,5.28
2019-03-12T02:21:18.296Z,5.87
2019-03-12T02:23:45.593Z,5.78
2019-03-12T02:26:12.984Z,5.30
2019-03-12T02:28:40.322Z,4.65
2019-03-12T02:31:07.623Z,7.85
2019-03-12T02:33:34.975Z,6.37
2019-03-12T02:36:02.267Z,6.87
2019-03-12T02:38:29.581Z,5.03
2019-03-12T02:40:56.872Z,5.80
2019-03-12T02:43:24.142Z,8.10
2019-03-12T02:45:51.501Z,5.10
2019-03-12T02:48:20.411Z,5.45
2019-03-12T02:50:47.742Z,4.83
2019-03-12T02:53:15.252Z,8.10
2019-03-12T02:55:42.533Z,5.35
2019-03-12T02:58:09.819Z,4.60
2019-03-12T03:00:37.212Z,5.10
2019-03-12T03:03:05.275Z,6.33
2019-03-12T03:05:34.271Z,5.80
2019-03-12T03:08:05.752Z,5.08
2019-03-12T03:10:33.090Z,5.10
2019-03-12T03:13:00.438Z,5.25
2019-03-12T03:15:33.907Z,5.30
2019-03-12T03:18:01.249Z,5.00
2019-03-12T03:20:28.602Z,5.95
2019-03-12T03:22:55.908Z,5.62
2019-03-12T03:25:23.191Z,5.10
2019-03-12T03:27:50.541Z,6.08
2019-03-12T03:30:20.872Z,7.03
2019-03-12T03:32:48.261Z,5.55
2019-03-12T03:35:15.683Z,5.10
2019-03-12T03:37:43.349Z,5.67
2019-03-12T03:40:12.230Z,7.87
2019-03-12T03:42:39.550Z,5.03
2019-03-12T03:45:08.157Z,6.65
2019-03-12T03:47:35.518Z,5.33
2019-03-12T03:50:03.445Z,5.40
2019-03-12T03:52:30.788Z,6.15
2019-03-12T03:54:58.157Z,4.37
2019-03-12T03:57:25.432Z,6.25
2019-03-12T03:59:52.798Z,5.03
2019-03-12T04:02:21.645Z,6.17
2019-03-12T04:04:48.990Z,4.28
2019-03-12T04:07:16.285Z,7.10
2019-03-12T04:09:43.651Z,5.65
2019-03-12T04:12:11.002Z,5.47
2019-03-12T04:14:38.387Z,5.55
2019-03-12T04:17:05.674Z,6.28
2019-03-12T04:19:32.976Z,5.17
2019-03-12T04:22:00.299Z,5.55
2019-03-12T04:24:27.567Z,4.90
2019-03-12T04:26:54.858Z,4.20
2019-03-12T04:29:22.229Z,9.03
2019-03-12T04:31:49.599Z,5.15
2019-03-12T04:34:16.917Z,5.28
2019-03-12T04:36:44.244Z,6.28
2019-03-12T04:39:11.735Z,6.80
2019-03-12T04:41:39.009Z,5.42
2019-03-12T04:44:06.279Z,5.35
2019-03-12T04:46:33.590Z,5.22
2019-03-12T04:49:00.947Z,14.20
2019-03-12T04:51:28.225Z,4.92
2019-03-12T04:53:55.590Z,5.37
2019-03-12T04:56:24.503Z,6.00
2019-03-12T04:58:51.861Z,6.72
2019-03-12T05:01:19.143Z,6.45
2019-03-12T05:03:46.434Z,7.00
2019-03-12T05:06:13.807Z,6.25
2019-03-12T05:08:41.178Z,10.13
2019-03-12T05:11:08.458Z,8.48
2019-03-12T05:13:35.825Z,6.28
2019-03-12T05:16:03.186Z,5.62
2019-03-12T05:18:30.474Z,10.15
2019-03-12T05:20:57.758Z,10.10
2019-03-12T05:23:25.039Z,7.75
2019-03-12T05:25:52.337Z,5.25
2019-03-12T05:28:19.618Z,12.00
2019-03-12T05:30:46.911Z,6.75
2019-03-12T05:33:14.313Z,12.28
2019-03-12T05:35:41.589Z,7.42
2019-03-12T05:38:08.877Z,8.58
2019-03-12T05:40:36.155Z,9.00
2019-03-12T05:43:03.446Z,5.47
2019-03-12T05:45:30.824Z,5.70
2019-03-12T05:47:58.102Z,6.22
2019-03-12T05:50:25.390Z,7.22
2019-03-12T05:52:54.258Z,9.33
2019-03-12T05:55:21.599Z,7.03
2019-03-12T05:57:48.951Z,5.67
2019-03-12T06:00:17.599Z,9.70
2019-03-12T06:02:44.956Z,9.73
2019-03-12T06:05:12.314Z,7.28
2019-03-12T06:07:39.707Z,8.00
2019-03-12T06:10:10.693Z,9.20
2019-03-12T06:12:38.063Z,8.70
2019-03-12T06:15:06.925Z,6.92
2019-03-12T06:17:34.213Z,10.70
2019-03-12T06:20:01.565Z,6.28
2019-03-12T06:22:28.870Z,6.75
2019-03-12T06:24:56.157Z,9.83
2019-03-12T06:27:23.911Z,7.62
2019-03-12T06:29:51.230Z,10.53
2019-03-12T06:32:32.377Z,9.98
2019-03-12T06:35:01.311Z,8.38
2019-03-12T06:37:30.235Z,9.48
2019-03-12T06:40:11.227Z,10.63
2019-03-12T06:42:40.186Z,8.95
2019-03-12T06:45:09.898Z,16.42
2019-03-12T06:47:41.503Z,26.60
2019-03-12T06:50:16.331Z,23.32
2019-03-12T06:53:01.643Z,27.60
2019-03-12T06:55:30.590Z,30.80
2019-03-12T06:58:01.052Z,28.87
2019-03-12T07:00:30.015Z,25.57
2019-03-12T07:03:04.507Z,27.48
2019-03-12T07:05:45.173Z,25.32
2019-03-12T07:08:22.691Z,22.73
2019-03-12T07:10:57.155Z,21.23
2019-03-12T07:13:28.526Z,23.60
2019-03-12T07:16:06.318Z,22.80
2019-03-12T07:18:51.644Z,21.30
2019-03-12T07:21:26.367Z,22.70
2019-03-12T07:23:58.009Z,24.87
2019-03-12T07:26:32.579Z,20.70
2019-03-12T07:29:04.223Z,21.75
2019-03-12T07:31:42.148Z,18.60
2019-03-12T07:34:11.140Z,16.95
2019-03-12T07:36:56.224Z,21.12
2019-03-12T07:39:34.034Z,23.25
2019-03-12T07:42:15.110Z,15.65
2019-03-12T07:44:44.035Z,33.55
2019-03-12T07:47:15.925Z,19.57
2019-03-12T07:49:47.666Z,20.88
2019-03-12T07:52:22.265Z,20.50
2019-03-12T07:54:51.213Z,22.00
2019-03-12T07:57:20.218Z,37.58
2019-03-12T07:59:49.203Z,18.62
2019-03-12T08:02:18.209Z,14.20
2019-03-12T08:04:56.063Z,17.55
2019-03-12T08:07:41.483Z,22.37
2019-03-12T08:10:20.278Z,14.45
2019-03-12T08:12:55.069Z,16.45
2019-03-12T08:15:24.046Z,17.27
2019-03-12T08:17:55.748Z,21.45
2019-03-12T08:20:40.921Z,16.35
2019-03-12T08:23:09.941Z,14.53
2019-03-12T08:25:43.901Z,11.48
2019-03-12T08:28:12.280Z,9.85
2019-03-12T08:30:52.916Z,14.73
2019-03-12T08:33:50.039Z,14.15
2019-03-12T08:36:08.849Z,12.30
2019-03-12T08:38:37.773Z,14.18
2019-03-12T08:41:21.756Z,17.95
2019-03-12T08:43:50.685Z,14.25
2019-03-12T08:46:23.098Z,17.70
2019-03-12T08:48:52.288Z,13.50
2019-03-12T08:51:26.704Z,13.25
2019-03-12T08:53:58.303Z,14.95
2019-03-12T08:56:42.358Z,11.12
2019-03-12T08:59:16.933Z,15.20
2019-03-12T09:02:02.514Z,14.73
2019-03-12T09:04:37.014Z,14.25
2019-03-12T09:07:09.066Z,11.10
2019-03-12T09:09:38.090Z,11.85
2019-03-12T09:12:15.595Z,12.40
2019-03-12T09:14:44.651Z,15.72
2019-03-12T09:17:25.719Z,21.25
2019-03-12T09:20:00.557Z,11.95
2019-03-12T09:22:32.050Z,11.08
2019-03-12T09:25:17.448Z,13.65
2019-03-12T09:27:55.487Z,19.73
2019-03-12T09:30:26.973Z,15.43
2019-03-12T09:33:01.679Z,12.93
2019-03-12T09:35:33.426Z,13.08
2019-03-12T09:38:14.680Z,13.60
2019-03-12T09:40:43.627Z,14.65
2019-03-12T09:43:12.553Z,16.10
2019-03-12T09:45:41.549Z,13.40
2019-03-12T09:48:13.156Z,12.28
2019-03-12T09:50:45.266Z,15.00
2019-03-12T09:53:17.016Z,17.12
2019-03-12T09:55:54.673Z,18.27
2019-03-12T09:58:23.589Z,13.20
2019-03-12T10:00:58.078Z,17.30
2019-03-12T10:03:29.837Z,12.70
2019-03-12T10:06:01.533Z,13.78
2019-03-12T10:08:30.547Z,13.00
2019-03-12T10:10:59.559Z,24.25
2019-03-12T10:13:31.792Z,21.17
2019-03-12T10:16:12.821Z,18.23
2019-03-12T10:18:50.674Z,16.48
2019-03-12T10:21:31.416Z,15.58
2019-03-12T10:24:16.554Z,15.08
2019-03-12T10:26:54.586Z,11.30
2019-03-12T10:29:26.388Z,15.15
2019-03-12T10:31:57.982Z,9.65
2019-03-12T10:34:32.744Z,15.08
2019-03-12T10:37:12.146Z,15.65
2019-03-12T10:39:48.634Z,18.52
2019-03-12T10:42:17.642Z,17.32
2019-03-12T10:44:46.634Z,16.97
2019-03-12T10:47:15.599Z,17.90
2019-03-12T10:49:42.896Z,17.87
2019-03-12T10:52:10.277Z,14.03
2019-03-12T10:54:37.639Z,12.90
2019-03-12T10:57:04.993Z,17.55
2019-03-12T10:59:32.269Z,13.05
2019-03-12T11:01:59.554Z,14.15
2019-03-12T11:04:26.837Z,11.43
2019-03-12T11:06:54.119Z,10.23
2019-03-12T11:09:21.491Z,13.58
2019-03-12T11:11:48.845Z,8.80
2019-03-12T11:14:16.180Z,13.20
2019-03-12T11:16:43.531Z,10.53
2019-03-12T11:19:10.806Z,12.25
2019-03-12T11:21:38.139Z,12.40
2019-03-12T11:24:05.556Z,8.73
2019-03-12T11:26:33.088Z,9.58
2019-03-12T11:29:00.479Z,13.15
2019-03-12T11:31:27.772Z,10.55
2019-03-12T11:33:55.149Z,10.43
2019-03-12T11:36:22.495Z,8.25
2019-03-12T11:38:50.118Z,9.88
2019-03-12T11:41:17.440Z,8.25
2019-03-12T11:43:44.944Z,9.50
2019-03-12T11:46:12.497Z,10.58
2019-03-12T11:48:39.784Z,10.10
2019-03-12T11:51:07.148Z,10.50
2019-03-12T11:53:34.509Z,9.63
2019-03-12T11:56:01.978Z,8.48
2019-03-12T11:58:29.616Z,11.50
2019-03-12T12:00:58.640Z,10.72
2019-03-12T12:03:26.228Z,8.38
2019-03-12T12:05:53.610Z,11.35
2019-03-12T12:08:20.909Z,9.40
2019-03-12T12:10:48.324Z,15.20
2019-03-12T12:13:15.715Z,12.20
2019-03-12T12:15:43.006Z,10.43
2019-03-12T12:18:10.357Z,7.08
2019-03-12T12:20:37.722Z,8.20
2019-03-12T12:23:05.072Z,6.83
2019-03-12T12:25:32.388Z,8.48
2019-03-12T12:27:59.680Z,5.87
2019-03-12T12:30:26.972Z,7.50
2019-03-12T12:32:54.322Z,8.65
2019-03-12T12:35:21.608Z,8.35
2019-03-12T12:37:48.915Z,5.80
2019-03-12T12:40:17.267Z,7.67
2019-03-12T12:42:44.611Z,5.35
2019-03-12T12:45:13.435Z,6.22
2019-03-12T12:47:40.792Z,5.53
2019-03-12T12:50:08.386Z,5.33
2019-03-12T12:52:35.656Z,9.78
2019-03-12T12:55:03.511Z,9.60
2019-03-12T12:57:30.785Z,8.73
2019-03-12T12:59:58.092Z,9.85
2019-03-12T13:02:25.365Z,8.15
2019-03-12T13:04:52.699Z,5.12
2019-03-12T13:07:20.018Z,7.95
2019-03-12T13:09:47.371Z,7.85
2019-03-12T13:12:14.763Z,5.45
2019-03-12T13:14:42.445Z,8.78
2019-03-12T13:17:09.801Z,13.00
2019-03-12T13:19:37.214Z,9.60
2019-03-12T13:22:04.771Z,12.45
2019-03-12T13:24:32.088Z,7.22
2019-03-12T13:26:59.371Z,7.85
2019-03-12T13:29:26.708Z,16.17
2019-03-12T13:31:54.133Z,8.05
2019-03-12T13:34:21.408Z,10.95
2019-03-12T13:36:48.774Z,14.25
2019-03-12T13:39:16.141Z,10.58
2019-03-12T13:41:43.661Z,6.30
2019-03-12T13:44:11.022Z,11.05
2019-03-12T13:46:41.172Z,6.30
2019-03-12T13:49:08.577Z,6.22
2019-03-12T13:51:35.936Z,7.72
2019-03-12T13:54:03.464Z,6.67
2019-03-12T13:56:30.742Z,6.72
2019-03-12T13:58:58.109Z,6.80
2019-03-12T14:01:25.470Z,8.60
2019-03-12T14:03:52.825Z,5.03
2019-03-12T14:06:20.106Z,6.45
2019-03-12T14:08:47.396Z,6.60
2019-03-12T14:11:14.683Z,6.85
2019-03-12T14:13:41.977Z,3.70
2019-03-12T14:16:09.370Z,5.78
2019-03-12T14:18:36.632Z,6.65
2019-03-12T14:21:08.266Z,4.60
2019-03-12T14:23:37.115Z,3.80
2019-03-12T14:26:04.658Z,3.70
2019-03-12T14:28:32.115Z,6.17
2019-03-12T14:30:59.557Z,9.40
2019-03-12T14:33:27.098Z,6.20
2019-03-12T14:35:54.532Z,3.47
2019-03-12T14:38:21.909Z,6.15
2019-03-12T14:40:49.418Z,6.30
2019-03-12T14:43:16.860Z,4.12
2019-03-12T14:45:47.751Z,4.87
2019-03-12T14:48:33.237Z,4.40
2019-03-12T14:51:00.556Z,4.72
2019-03-12T14:53:27.848Z,6.00
2019-03-12T14:55:55.202Z,5.37
2019-03-12T14:58:22.526Z,4.53
2019-03-12T15:00:49.822Z,3.50
2019-03-12T15:03:17.106Z,4.90
2019-03-12T15:05:44.401Z,4.45
2019-03-12T15:08:12.020Z,3.50
2019-03-12T15:10:39.610Z,3.62
2019-03-12T15:13:06.960Z,4.15
2019-03-12T15:15:34.324Z,3.35
2019-03-12T15:18:01.620Z,3.47
2019-03-12T15:20:28.961Z,4.00
2019-03-12T15:22:56.296Z,3.17
2019-03-12T15:25:23.574Z,3.05
2019-03-12T15:27:50.862Z,3.10
2019-03-12T15:30:19.502Z,3.20
2019-03-12T15:32:46.786Z,3.62
2019-03-12T15:35:14.069Z,3.33
2019-03-12T15:37:41.363Z,3.52
2019-03-12T15:40:10.314Z,4.47
2019-03-12T15:42:37.590Z,4.58
2019-03-12T15:45:06.412Z,3.05
2019-03-12T15:47:34.001Z,4.95
2019-03-12T15:50:02.880Z,4.00
2019-03-12T15:52:30.191Z,5.92
2019-03-12T15:54:57.478Z,6.37
2019-03-12T15:57:24.840Z,5.53
2019-03-12T15:59:52.161Z,5.67
2019-03-12T16:02:19.558Z,5.33
2019-03-12T16:04:46.897Z,7.67
2019-03-12T16:07:14.185Z,5.05
2019-03-12T16:09:41.534Z,7.08
2019-03-12T16:12:08.892Z,7.70
2019-03-12T16:14:36.181Z,8.88
2019-03-12T16:17:03.476Z,12.70
2019-03-12T16:19:30.841Z,5.00
2019-03-12T16:21:58.190Z,11.00
2019-03-12T16:24:25.485Z,5.25
2019-03-12T16:26:52.833Z,6.05
2019-03-12T16:29:20.140Z,6.62
2019-03-12T16:31:47.420Z,7.40
2019-03-12T16:34:14.697Z,8.35
2019-03-12T16:36:41.977Z,10.53
2019-03-12T16:39:09.254Z,8.03
2019-03-12T16:41:36.580Z,6.05
2019-03-12T16:44:04.058Z,8.05
2019-03-12T16:46:31.735Z,5.15
2019-03-12T16:48:59.027Z,6.28
2019-03-12T16:51:26.388Z,5.97
2019-03-12T16:53:53.684Z,11.15
2019-03-12T16:56:21.038Z,4.30
2019-03-12T16:58:48.380Z,7.55
2019-03-12T17:01:15.722Z,7.55
2019-03-12T17:03:43.018Z,11.65
2019-03-12T17:06:10.323Z,10.18
2019-03-12T17:08:37.717Z,11.88
2019-03-12T17:11:05.075Z,8.85
2019-03-12T17:13:32.432Z,8.43
2019-03-12T17:15:59.830Z,13.35
2019-03-12T17:18:27.123Z,8.45
2019-03-12T17:20:54.403Z,6.58
2019-03-12T17:23:21.712Z,9.35
2019-03-12T17:25:48.975Z,6.37
2019-03-12T17:28:16.297Z,8.78
2019-03-12T17:30:43.588Z,6.67
2019-03-12T17:33:11.021Z,6.65
2019-03-12T17:35:39.567Z,6.92
2019-03-12T17:38:06.839Z,6.95
2019-03-12T17:40:34.126Z,5.42
2019-03-12T17:43:01.527Z,6.67
2019-03-12T17:45:28.862Z,7.22
2019-03-12T17:47:56.143Z,7.35
2019-03-12T17:50:23.453Z,5.72
2019-03-12T17:52:50.740Z,9.20
2019-03-12T17:55:18.242Z,11.30
2019-03-12T17:57:45.610Z,18.67
2019-03-12T18:00:14.552Z,8.93
2019-03-12T18:02:42.891Z,7.12
2019-03-12T18:05:11.558Z,9.23
2019-03-12T18:07:38.876Z,7.33
2019-03-12T18:10:07.760Z,10.15
2019-03-12T18:12:35.088Z,16.30
2019-03-12T18:15:02.454Z,8.58
2019-03-12T18:17:29.784Z,8.38
2019-03-12T18:19:57.080Z,11.05
2019-03-12T18:22:24.474Z,8.93
2019-03-12T18:24:52.021Z,9.30
2019-03-12T18:27:19.324Z,9.18
2019-03-12T18:29:46.674Z,8.75
2019-03-12T18:32:13.964Z,6.95
2019-03-12T18:34:41.356Z,7.25
2019-03-12T18:37:08.725Z,12.23
2019-03-12T18:39:36.027Z,10.58
2019-03-12T18:42:03.702Z,7.00
2019-03-12T18:44:30.996Z,6.83
2019-03-12T18:46:58.364Z,11.18
2019-03-12T18:49:25.769Z,6.70
2019-03-12T18:51:53.104Z,9.40
2019-03-12T18:54:20.389Z,9.48
2019-03-12T18:56:48.012Z,9.80
2019-03-12T18:59:15.303Z,12.47
2019-03-12T19:01:42.680Z,12.20
2019-03-12T19:04:09.952Z,9.18
2019-03-12T19:06:37.228Z,9.85
2019-03-12T19:09:05.793Z,7.40
2019-03-12T19:11:37.635Z,5.85
2019-03-12T19:14:02.363Z,7.75
2019-03-12T19:16:29.637Z,6.72
2019-03-12T19:18:56.923Z,9.20
2019-03-12T19:21:24.235Z,9.38
2019-03-12T19:23:51.545Z,7.30
2019-03-12T19:26:18.879Z,7.28
2019-03-12T19:28:46.250Z,9.73
2019-03-12T19:31:18.337Z,7.12
2019-03-12T19:33:46.368Z,7.83
2019-03-12T19:36:13.651Z,6.08
2019-03-12T19:38:41.139Z,6.42
2019-03-12T19:41:08.647Z,6.83
2019-03-12T19:43:35.988Z,8.48
2019-03-12T19:46:03.318Z,9.05
2019-03-12T19:48:30.673Z,6.83
2019-03-12T19:50:57.946Z,7.25
2019-03-12T19:53:25.323Z,10.32
2019-03-12T19:55:59.733Z,15.05
2019-03-12T19:58:28.400Z,14.68
2019-03-12T20:00:56.266Z,12.07
2019-03-12T20:03:23.565Z,12.35
2019-03-12T20:05:50.926Z,13.85
2019-03-12T20:08:18.201Z,15.23
2019-03-12T20:10:49.697Z,12.35
2019-03-12T20:13:36.032Z,8.60
2019-03-12T20:16:10.954Z,11.95
2019-03-12T20:18:39.838Z,11.18
2019-03-12T20:21:08.649Z,9.48
2019-03-12T20:23:43.411Z,10.93
2019-03-12T20:26:21.230Z,7.60
2019-03-12T20:28:50.055Z,14.95
2019-03-12T20:31:27.941Z,14.73
2019-03-12T20:34:05.618Z,12.30
2019-03-12T20:36:37.109Z,10.70
2019-03-12T20:39:26.192Z,12.58
2019-03-12T20:42:07.201Z,8.93
2019-03-12T20:44:54.356Z,8.48
2019-03-12T20:47:39.565Z,14.38
2019-03-12T20:50:11.354Z,10.05
2019-03-12T20:52:56.858Z,8.58
2019-03-12T20:55:42.467Z,8.73
2019-03-12T20:58:17.024Z,11.53
2019-03-12T21:00:55.509Z,11.33
2019-03-12T21:03:41.024Z,10.95
2019-03-12T21:06:09.935Z,11.97
2019-03-12T21:08:55.123Z,12.33
2019-03-12T21:11:26.866Z,9.30
2019-03-12T21:14:07.489Z,12.95
2019-03-12T21:16:39.037Z,11.88
2019-03-12T21:19:25.957Z,12.85
2019-03-12T21:22:03.463Z,11.78
2019-03-12T21:24:31.024Z,12.53
2019-03-12T21:27:08.355Z,12.78
2019-03-12T21:29:48.480Z,13.20
2019-03-12T21:32:16.744Z,12.00
2019-03-12T21:34:44.065Z,14.90
2019-03-12T21:37:11.405Z,12.07
2019-03-12T21:39:38.689Z,14.13
2019-03-12T21:42:06.249Z,11.43
2019-03-12T21:44:33.708Z,15.23
2019-03-12T21:47:01.365Z,12.45
2019-03-12T21:49:28.653Z,13.50
2019-03-12T21:51:55.933Z,14.60
2019-03-12T21:54:23.209Z,14.33
2019-03-12T21:56:50.559Z,13.43
2019-03-12T21:59:17.968Z,14.63
2019-03-12T22:01:45.333Z,13.98
2019-03-12T22:04:12.634Z,17.17
2019-03-12T22:06:39.928Z,14.20
2019-03-12T22:09:07.223Z,12.63
2019-03-12T22:11:34.799Z,16.73
2019-03-12T22:14:02.078Z,14.38
2019-03-12T22:16:29.371Z,17.65
2019-03-12T22:18:56.940Z,15.90
2019-03-12T22:21:25.973Z,15.38
2019-03-12T22:23:53.249Z,15.18
2019-03-12T22:26:20.537Z,14.60
2019-03-12T22:28:47.832Z,19.77
2019-03-12T22:31:15.113Z,16.82
2019-03-12T22:33:42.499Z,15.35
2019-03-12T22:36:09.794Z,17.27
2019-03-12T22:38:37.074Z,14.68
2019-03-12T22:41:04.388Z,14.15
2019-03-12T22:43:31.686Z,16.35
2019-03-12T22:45:58.983Z,15.48
2019-03-12T22:48:26.285Z,14.15
2019-03-12T22:50:53.574Z,16.97
2019-03-12T22:53:20.879Z,16.70
2019-03-12T22:55:48.175Z,15.30
2019-03-12T22:58:15.494Z,16.50
2019-03-12T23:00:44.118Z,16.82
2019-03-12T23:03:11.471Z,17.35
2019-03-12T23:05:38.782Z,15.85
2019-03-12T23:08:06.071Z,14.58
2019-03-12T23:10:33.442Z,16.10
2019-03-12T23:13:00.854Z,14.68
2019-03-12T23:15:28.159Z,16.12
2019-03-12T23:17:55.545Z,14.95
2019-03-12T23:20:22.981Z,15.55
2019-03-12T23:22:52.118Z,15.48
2019-03-12T23:25:19.422Z,15.95
2019-03-12T23:27:46.805Z,15.23
2019-03-12T23:30:20.565Z,15.58
2019-03-12T23:32:47.944Z,13.70
2019-03-12T23:35:15.348Z,15.80
2019-03-12T23:37:42.714Z,15.50
2019-03-12T23:40:14.711Z,18.10
2019-03-12T23:42:42.059Z,16.67
2019-03-12T23:45:10.975Z,17.02
2019-03-12T23:47:38.344Z,17.10
2019-03-12T23:50:10.473Z,15.18
2019-03-12T23:52:37.855Z,14.35
2019-03-12T23:55:06.911Z,14.65
2019-03-12T23:57:34.247Z,14.83
